Time,TemperatureF,DewpointF,PressureIn,WindDirection,WindDirectionDegrees,WindSpeedMPH,WindSpeedGustMPH,Humidity,HourlyPrecipIn,Conditions,Clouds,dailyrainin,SoftwareType,DateUTC
2013-02-28 00:01:00,41.0,13.0,-100.00,NNW,334,3.0,10.0,31,-99.99,,,-99.99,,2013-02-28 08:01:00,
2013-02-28 00:11:00,41.0,13.0,-100.00,East,100,2.0,4.0,32,-99.99,,,-99.99,,2013-02-28 08:11:00,
2013-02-28 00:21:00,40.0,15.0,-100.00,ENE,64,2.0,5.0,35,-99.99,,,-99.99,,2013-02-28 08:21:00,
2013-02-28 00:31:00,40.0,15.0,-100.00,North,359,4.0,7.0,35,-99.99,,,-99.99,,2013-02-28 08:31:00,
2013-02-28 00:42:00,42.0,14.0,-100.00,NNE,21,3.0,5.0,31,-99.99,,,-99.99,,2013-02-28 08:42:00,
2013-02-28 00:52:00,39.0,16.0,-100.00,NE,56,2.0,6.0,38,-99.99,,,-99.99,,2013-02-28 08:52:00,
2013-02-28 01:02:00,42.0,12.0,-100.00,North,359,3.0,6.0,29,-99.99,,,-99.99,,2013-02-28 09:02:00,
2013-02-28 01:11:00,41.0,13.0,-100.00,NW,317,2.0,6.0,31,-99.99,,,-99.99,,2013-02-28 09:11:00,
2013-02-28 01:21:00,42.0,12.0,-100.00,WSW,247,2.0,5.0,29,-99.99,,,-99.99,,2013-02-28 09:21:00,
2013-02-28 01:31:00,42.0,14.0,-100.00,East,99,1.0,4.0,32,-99.99,,,-99.99,,2013-02-28 09:31:00,
2013-02-28 01:41:00,39.0,14.0,-100.00,NNE,21,4.0,8.0,36,-99.99,,,-99.99,,2013-02-28 09:41:00,
2013-02-28 01:52:00,43.0,12.0,-100.00,NNW,339,2.0,4.0,28,-99.99,,,-99.99,,2013-02-28 09:52:00,
2013-02-28 02:01:00,42.0,12.0,-100.00,NNE,32,3.0,9.0,29,-99.99,,,-99.99,,2013-02-28 10:01:00,
2013-02-28 02:11:00,46.0,8.0,-100.00,NW,304,4.0,8.0,21,-99.99,,,-99.99,,2013-02-28 10:11:00,
2013-02-28 02:21:00,46.0,10.0,-100.00,NNW,331,2.0,5.0,23,-99.99,,,-99.99,,2013-02-28 10:21:00,
2013-02-28 02:31:00,44.0,11.0,-100.00,East,79,2.0,4.0,26,-99.99,,,-99.99,,2013-02-28 10:31:00,
2013-02-28 02:42:00,43.0,10.0,-100.00,North,9,2.0,7.0,26,-99.99,,,-99.99,,2013-02-28 10:42:00,
2013-02-28 02:51:00,47.0,10.0,-100.00,West,268,3.0,7.0,22,-99.99,,,-99.99,,2013-02-28 10:51:00,
2013-02-28 03:01:00,44.0,10.0,-100.00,WNW,286,4.0,9.0,24,-99.99,,,-99.99,,2013-02-28 11:01:00,
2013-02-28 03:11:00,49.0,7.0,-100.00,NNW,339,3.0,8.0,18,-99.99,,,-99.99,,2013-02-28 11:11:00,
2013-02-28 03:21:00,51.0,4.0,-100.00,SW,231,1.0,6.0,14,-99.99,,,-99.99,,2013-02-28 11:21:00,
2013-02-28 03:31:00,52.0,3.0,-100.00,NNW,334,3.0,13.0,13,-99.99,,,-99.99,,2013-02-28 11:31:00,
2013-02-28 03:41:00,54.0,1.0,-100.00,North,9,6.0,14.0,11,-99.99,,,-99.99,,2013-02-28 11:41:00,
2013-02-28 03:52:00,55.0,1.0,-100.00,North,360,5.0,12.0,11,-99.99,,,-99.99,,2013-02-28 11:52:00,
2013-02-28 04:01:00,55.0,3.0,-100.00,NE,41,8.0,15.0,12,-99.99,,,-99.99,,2013-02-28 12:01:00,
2013-02-28 04:11:00,55.0,3.0,-100.00,NE,45,12.0,21.0,12,-99.99,,,-99.99,,2013-02-28 12:11:00,
2013-02-28 04:21:00,56.0,2.0,-100.00,NE,42,12.0,21.0,11,-99.99,,,-99.99,,2013-02-28 12:21:00,
2013-02-28 04:31:00,57.0,1.0,-100.00,NE,38,12.0,27.0,10,-99.99,,,-99.99,,2013-02-28 12:31:00,
2013-02-28 04:42:00,56.0,2.0,-100.00,NE,48,14.0,23.0,11,-99.99,,,-99.99,,2013-02-28 12:42:00,
2013-02-28 04:52:00,56.0,2.0,-100.00,NE,47,16.0,23.0,11,-99.99,,,-99.99,,2013-02-28 12:52:00,
2013-02-28 05:01:00,56.0,0.0,-100.00,NE,44,17.0,27.0,10,-99.99,,,-99.99,,2013-02-28 13:01:00,
2013-02-28 05:21:00,56.0,0.0,-100.00,NE,44,17.0,27.0,10,-99.99,,,-99.99,,2013-02-28 13:21:00,
2013-02-28 05:31:00,56.0,0.0,-100.00,NE,39,16.0,29.0,10,-99.99,,,-99.99,,2013-02-28 13:31:00,
2013-02-28 05:42:00,57.0,1.0,-100.00,NE,39,18.0,28.0,10,-99.99,,,-99.99,,2013-02-28 13:42:00,
2013-02-28 05:52:00,56.0,2.0,-100.00,NE,42,17.0,28.0,11,-99.99,,,-99.99,,2013-02-28 13:52:00,
2013-02-28 06:01:00,57.0,1.0,-100.00,NE,43,19.0,33.0,10,-99.99,,,-99.99,,2013-02-28 14:01:00,
2013-02-28 06:11:00,56.0,0.0,-100.00,NE,43,20.0,30.0,10,-99.99,,,-99.99,,2013-02-28 14:11:00,
2013-02-28 06:21:00,57.0,1.0,-100.00,NE,41,20.0,41.0,10,-99.99,,,-99.99,,2013-02-28 14:21:00,
2013-02-28 06:31:00,56.0,0.0,-100.00,NE,45,21.0,32.0,10,-99.99,,,-99.99,,2013-02-28 14:31:00,
2013-02-28 06:42:00,56.0,0.0,-100.00,NE,43,22.0,31.0,10,-99.99,,,-99.99,,2013-02-28 14:42:00,
2013-02-28 06:52:00,57.0,1.0,-100.00,NE,39,21.0,33.0,10,-99.99,,,-99.99,,2013-02-28 14:52:00,
2013-02-28 07:01:00,57.0,1.0,-100.00,NE,40,20.0,31.0,10,-99.99,,,-99.99,,2013-02-28 15:01:00,
2013-02-28 07:11:00,57.0,1.0,-100.00,NE,40,21.0,34.0,10,-99.99,,,-99.99,,2013-02-28 15:11:00,
2013-02-28 07:21:00,57.0,1.0,-100.00,NE,37,21.0,32.0,10,-99.99,,,-99.99,,2013-02-28 15:21:00,
2013-02-28 07:31:00,58.0,2.0,-100.00,NE,37,21.0,35.0,10,-99.99,,,-99.99,,2013-02-28 15:31:00,
2013-02-28 07:41:00,58.0,2.0,-100.00,NE,37,21.0,35.0,10,-99.99,,,-99.99,,2013-02-28 15:41:00,
2013-02-28 07:52:00,58.0,2.0,-100.00,NE,40,23.0,36.0,10,-99.99,,,-99.99,,2013-02-28 15:52:00,
2013-02-28 08:01:00,58.0,2.0,-100.00,NE,40,23.0,36.0,10,-99.99,,,-99.99,,2013-02-28 16:01:00,
2013-02-28 08:11:00,59.0,3.0,-100.00,NE,34,21.0,32.0,10,-99.99,,,-99.99,,2013-02-28 16:11:00,
2013-02-28 08:21:00,60.0,1.0,-100.00,NNE,27,16.0,27.0,9,-99.99,,,-99.99,,2013-02-28 16:21:00,
2013-02-28 08:31:00,60.0,1.0,-100.00,NNE,27,16.0,27.0,9,-99.99,,,-99.99,,2013-02-28 16:31:00,
2013-02-28 08:42:00,60.0,1.0,-100.00,NNE,25,18.0,28.0,9,-99.99,,,-99.99,,2013-02-28 16:42:00,
2013-02-28 08:52:00,60.0,1.0,-100.00,NNE,22,15.0,25.0,9,-99.99,,,-99.99,,2013-02-28 16:52:00,
2013-02-28 09:01:00,60.0,3.0,-100.00,NNE,26,15.0,26.0,10,-99.99,,,-99.99,,2013-02-28 17:01:00,
2013-02-28 09:11:00,61.0,4.0,-100.00,NNE,27,12.0,20.0,10,-99.99,,,-99.99,,2013-02-28 17:11:00,
2013-02-28 09:21:00,61.0,4.0,-100.00,NNE,31,16.0,29.0,10,-99.99,,,-99.99,,2013-02-28 17:21:00,
2013-02-28 09:32:00,61.0,6.0,-100.00,NE,45,19.0,34.0,11,-99.99,,,-99.99,,2013-02-28 17:32:00,
2013-02-28 09:41:00,61.0,6.0,-100.00,NE,45,19.0,34.0,11,-99.99,,,-99.99,,2013-02-28 17:41:00,
2013-02-28 09:52:00,62.0,9.0,-100.00,NE,48,19.0,28.0,12,-99.99,,,-99.99,,2013-02-28 17:52:00,
2013-02-28 10:01:00,62.0,9.0,-100.00,NE,48,19.0,28.0,12,-99.99,,,-99.99,,2013-02-28 18:01:00,
2013-02-28 10:11:00,62.0,7.0,-100.00,NE,50,19.0,30.0,11,-99.99,,,-99.99,,2013-02-28 18:11:00,
2013-02-28 10:21:00,63.0,8.0,-100.00,NE,42,17.0,26.0,11,-99.99,,,-99.99,,2013-02-28 18:21:00,
2013-02-28 10:31:00,63.0,8.0,-100.00,NE,46,21.0,32.0,11,-99.99,,,-99.99,,2013-02-28 18:31:00,
2013-02-28 10:42:00,63.0,10.0,-100.00,NE,50,19.0,30.0,12,-99.99,,,-99.99,,2013-02-28 18:42:00,
2013-02-28 10:52:00,63.0,8.0,-100.00,NE,48,19.0,27.0,11,-99.99,,,-99.99,,2013-02-28 18:52:00,
2013-02-28 11:01:00,64.0,8.0,-100.00,NE,44,21.0,33.0,11,-99.99,,,-99.99,,2013-02-28 19:01:00,
2013-02-28 11:11:00,64.0,8.0,-100.00,NE,45,19.0,27.0,11,-99.99,,,-99.99,,2013-02-28 19:11:00,
2013-02-28 11:21:00,64.0,8.0,-100.00,NE,43,18.0,27.0,11,-99.99,,,-99.99,,2013-02-28 19:21:00,
2013-02-28 11:31:00,64.0,10.0,-100.00,NE,43,15.0,28.0,12,-99.99,,,-99.99,,2013-02-28 19:31:00,
2013-02-28 11:41:00,64.0,8.0,-100.00,NE,44,22.0,34.0,11,-99.99,,,-99.99,,2013-02-28 19:41:00,
2013-02-28 11:51:00,64.0,8.0,-100.00,NE,35,16.0,25.0,11,-99.99,,,-99.99,,2013-02-28 19:51:00,
2013-02-28 12:01:00,65.0,11.0,-100.00,NE,43,16.0,23.0,12,-99.99,,,-99.99,,2013-02-28 20:01:00,
2013-02-28 12:11:00,65.0,9.0,-100.00,NE,35,17.0,28.0,11,-99.99,,,-99.99,,2013-02-28 20:11:00,
2013-02-28 12:21:00,65.0,11.0,-100.00,NE,48,21.0,30.0,12,-99.99,,,-99.99,,2013-02-28 20:21:00,
2013-02-28 12:31:00,65.0,9.0,-100.00,NE,40,12.0,22.0,11,-99.99,,,-99.99,,2013-02-28 20:31:00,
2013-02-28 12:41:00,66.0,10.0,-100.00,NE,45,14.0,24.0,11,-99.99,,,-99.99,,2013-02-28 20:41:00,
2013-02-28 12:52:00,66.0,10.0,-100.00,NE,48,17.0,28.0,11,-99.99,,,-99.99,,2013-02-28 20:52:00,
2013-02-28 13:01:00,66.0,12.0,-100.00,NE,47,15.0,27.0,12,-99.99,,,-99.99,,2013-02-28 21:01:00,
2013-02-28 13:11:00,66.0,10.0,-100.00,NE,51,14.0,25.0,11,-99.99,,,-99.99,,2013-02-28 21:11:00,
2013-02-28 13:22:00,66.0,12.0,-100.00,NE,55,17.0,24.0,12,-99.99,,,-99.99,,2013-02-28 21:22:00,
2013-02-28 13:31:00,67.0,13.0,-100.00,NE,56,14.0,22.0,12,-99.99,,,-99.99,,2013-02-28 21:31:00,
2013-02-28 13:41:00,67.0,11.0,-100.00,NE,56,16.0,23.0,11,-99.99,,,-99.99,,2013-02-28 21:41:00,
2013-02-28 13:51:00,66.0,10.0,-100.00,ENE,63,18.0,25.0,11,-99.99,,,-99.99,,2013-02-28 21:51:00,
2013-02-28 14:01:00,67.0,11.0,-100.00,NE,45,11.0,20.0,11,-99.99,,,-99.99,,2013-02-28 22:01:00,
2013-02-28 14:11:00,67.0,13.0,-100.00,NE,50,15.0,21.0,12,-99.99,,,-99.99,,2013-02-28 22:11:00,
2013-02-28 14:21:00,67.0,13.0,-100.00,ENE,62,17.0,23.0,12,-99.99,,,-99.99,,2013-02-28 22:21:00,
2013-02-28 14:31:00,67.0,11.0,-100.00,NE,56,14.0,23.0,11,-99.99,,,-99.99,,2013-02-28 22:31:00,
2013-02-28 14:41:00,67.0,13.0,-100.00,NE,51,13.0,18.0,12,-99.99,,,-99.99,,2013-02-28 22:41:00,
2013-02-28 14:52:00,68.0,14.0,-100.00,ENE,60,12.0,16.0,12,-99.99,,,-99.99,,2013-02-28 22:52:00,
2013-02-28 15:01:00,67.0,13.0,-100.00,NE,49,13.0,21.0,12,-99.99,,,-99.99,,2013-02-28 23:01:00,
2013-02-28 15:11:00,67.0,13.0,-100.00,ENE,58,14.0,21.0,12,-99.99,,,-99.99,,2013-02-28 23:11:00,
2013-02-28 15:21:00,68.0,12.0,-100.00,ENE,70,14.0,19.0,11,-99.99,,,-99.99,,2013-02-28 23:21:00,
2013-02-28 15:31:00,67.0,9.0,-100.00,ENE,73,11.0,20.0,10,-99.99,,,-99.99,,2013-02-28 23:31:00,
2013-02-28 15:41:00,67.0,11.0,-100.00,ENE,66,11.0,21.0,11,-99.99,,,-99.99,,2013-02-28 23:41:00,
2013-02-28 15:52:00,67.0,11.0,-100.00,ENE,64,12.0,19.0,11,-99.99,,,-99.99,,2013-02-28 23:52:00,
2013-02-28 16:01:00,67.0,11.0,-100.00,ENE,62,15.0,21.0,11,-99.99,,,-99.99,,2013-03-01 00:01:00,
2013-02-28 16:11:00,67.0,11.0,-100.00,ENE,66,13.0,18.0,11,-99.99,,,-99.99,,2013-03-01 00:11:00,
2013-02-28 16:22:00,67.0,11.0,-100.00,ENE,67,11.0,18.0,11,-99.99,,,-99.99,,2013-03-01 00:22:00,
2013-02-28 16:32:00,67.0,11.0,-100.00,ENE,73,8.0,14.0,11,-99.99,,,-99.99,,2013-03-01 00:32:00,
2013-02-28 16:41:00,67.0,11.0,-100.00,ENE,73,8.0,14.0,11,-99.99,,,-99.99,,2013-03-01 00:41:00,
2013-02-28 16:51:00,67.0,11.0,-100.00,ENE,72,9.0,15.0,11,-99.99,,,-99.99,,2013-03-01 00:51:00,
2013-02-28 17:01:00,67.0,11.0,-100.00,ENE,63,10.0,20.0,11,-99.99,,,-99.99,,2013-03-01 01:01:00,
2013-02-28 17:11:00,66.0,12.0,-100.00,NE,51,6.0,10.0,12,-99.99,,,-99.99,,2013-03-01 01:11:00,
2013-02-28 17:21:00,66.0,12.0,-100.00,ENE,59,8.0,12.0,12,-99.99,,,-99.99,,2013-03-01 01:21:00,
2013-02-28 17:31:00,65.0,11.0,-100.00,NE,48,6.0,11.0,12,-99.99,,,-99.99,,2013-03-01 01:31:00,
2013-02-28 17:42:00,65.0,11.0,-100.00,NE,48,6.0,11.0,12,-99.99,,,-99.99,,2013-03-01 01:42:00,
2013-02-28 17:51:00,63.0,11.0,-100.00,NNW,344,2.0,4.0,13,-99.99,,,-99.99,,2013-03-01 01:51:00,
2013-02-28 18:01:00,61.0,11.0,-100.00,NNE,27,4.0,8.0,14,-99.99,,,-99.99,,2013-03-01 02:01:00,
2013-02-28 18:11:00,62.0,9.0,-100.00,North,8,4.0,9.0,12,-99.99,,,-99.99,,2013-03-01 02:11:00,
2013-02-28 18:21:00,62.0,9.0,-100.00,NE,37,4.0,8.0,12,-99.99,,,-99.99,,2013-03-01 02:21:00,
2013-02-28 18:31:00,59.0,13.0,-100.00,NW,318,0.0,2.0,16,-99.99,,,-99.99,,2013-03-01 02:31:00,
2013-02-28 18:42:00,59.0,10.0,-100.00,ESE,108,2.0,8.0,14,-99.99,,,-99.99,,2013-03-01 02:42:00,
2013-02-28 18:52:00,60.0,9.0,-100.00,WNW,291,2.0,3.0,13,-99.99,,,-99.99,,2013-03-01 02:52:00,
2013-02-28 19:01:00,60.0,9.0,-100.00,WNW,291,2.0,3.0,13,-99.99,,,-99.99,,2013-03-01 03:01:00,
2013-02-28 19:11:00,59.0,10.0,-100.00,NE,44,5.0,10.0,14,-99.99,,,-99.99,,2013-03-01 03:11:00,
2013-02-28 19:21:00,59.0,10.0,-100.00,NE,44,5.0,10.0,14,-99.99,,,-99.99,,2013-03-01 03:21:00,
2013-02-28 19:32:00,60.0,9.0,-100.00,NNE,21,3.0,6.0,13,-99.99,,,-99.99,,2013-03-01 03:32:00,
2013-02-28 19:41:00,59.0,8.0,-100.00,North,9,2.0,5.0,13,-99.99,,,-99.99,,2013-03-01 03:41:00,
2013-02-28 19:51:00,61.0,6.0,-100.00,NNW,341,2.0,5.0,11,-99.99,,,-99.99,,2013-03-01 03:51:00,
2013-02-28 20:01:00,59.0,6.0,-100.00,East,79,1.0,3.0,12,-99.99,,,-99.99,,2013-03-01 04:01:00,
2013-02-28 20:11:00,59.0,8.0,-100.00,ENE,57,1.0,3.0,13,-99.99,,,-99.99,,2013-03-01 04:11:00,
2013-02-28 20:21:00,58.0,7.0,-100.00,NNW,331,0.0,2.0,13,-99.99,,,-99.99,,2013-03-01 04:21:00,
2013-02-28 20:31:00,57.0,8.0,-100.00,SSW,196,1.0,3.0,14,-99.99,,,-99.99,,2013-03-01 04:31:00,
2013-02-28 20:41:00,56.0,9.0,-100.00,NE,42,1.0,3.0,15,-99.99,,,-99.99,,2013-03-01 04:41:00,
2013-02-28 20:51:00,57.0,8.0,-100.00,NW,318,4.0,5.0,14,-99.99,,,-99.99,,2013-03-01 04:51:00,
2013-02-28 21:01:00,56.0,9.0,-100.00,NNW,338,2.0,5.0,15,-99.99,,,-99.99,,2013-03-01 05:01:00,
2013-02-28 21:11:00,56.0,10.0,-100.00,North,11,2.0,6.0,16,-99.99,,,-99.99,,2013-03-01 05:11:00,
2013-02-28 21:22:00,51.0,16.0,-100.00,ENE,71,5.0,7.0,24,-99.99,,,-99.99,,2013-03-01 05:22:00,
2013-02-28 21:32:00,50.0,15.0,-100.00,NNE,16,3.0,5.0,24,-99.99,,,-99.99,,2013-03-01 05:32:00,
2013-02-28 21:41:00,50.0,15.0,-100.00,NNE,16,3.0,5.0,24,-99.99,,,-99.99,,2013-03-01 05:41:00,
2013-02-28 21:52:00,52.0,12.0,-100.00,North,356,2.0,4.0,20,-99.99,,,-99.99,,2013-03-01 05:52:00,
2013-02-28 22:01:00,49.0,16.0,-100.00,East,89,3.0,5.0,26,-99.99,,,-99.99,,2013-03-01 06:01:00,
2013-02-28 22:11:00,45.0,18.0,-100.00,NE,45,3.0,6.0,33,-99.99,,,-99.99,,2013-03-01 06:11:00,
2013-02-28 22:31:00,47.0,16.0,-100.00,NNE,33,4.0,9.0,29,-99.99,,,-99.99,,2013-03-01 06:31:00,
2013-02-28 22:42:00,49.0,16.0,-100.00,NNE,21,3.0,6.0,26,-99.99,,,-99.99,,2013-03-01 06:42:00,
2013-02-28 22:52:00,53.0,13.0,-100.00,NNE,22,4.0,8.0,20,-99.99,,,-99.99,,2013-03-01 06:52:00,
2013-02-28 23:01:00,53.0,13.0,-100.00,NNE,22,4.0,8.0,20,-99.99,,,-99.99,,2013-03-01 07:01:00,
2013-02-28 23:11:00,55.0,11.0,-100.00,NNE,24,3.0,6.0,17,-99.99,,,-99.99,,2013-03-01 07:11:00,
2013-02-28 23:21:00,54.0,11.0,-100.00,NNE,19,2.0,5.0,18,-99.99,,,-99.99,,2013-03-01 07:21:00,
2013-02-28 23:32:00,54.0,11.0,-100.00,NE,35,5.0,7.0,18,-99.99,,,-99.99,,2013-03-01 07:32:00,
2013-02-28 23:42:00,53.0,12.0,-100.00,NNE,22,4.0,6.0,19,-99.99,,,-99.99,,2013-03-01 07:42:00,
2013-02-28 23:51:00,56.0,10.0,-100.00,NE,39,4.0,7.0,16,-99.99,,,-99.99,,2013-03-01 07:51:00,